Newhope, Arkansas
Current Conditions -  °F | °C
As of 8:30 PM on Monday 22 Dec 2014 (Local Time) from KMWT Reporting Station
Overcast Overcast  
Wind Chill: 55°   Ceiling: 3000
Heat Index: 55°   Visibility: 10mi
Dew Point: 49°   Wind: 0mph
Humidity: 80%   Direction: NA
Pressure: 29.63"   Gusts: NA
Location:  34.23°N, 93.88°W
Report Text: KMWT 230230Z AUTO 00000KT 10SM OVC030 13/09 A2963 RMK AO2 T01280094
Loading
Personal Weather Stations






























Interactive Weather Map New forecast layout! Learn more

10-Day Weather Forecast

Advertisements
Track Severe Weather on mobile